Sharon, Oklahoma
Current Conditions -  °F | °C
As of 2:53 PM on Friday 31 Oct 2014 (Local Time) from KGAG Reporting Station
Clear Clear  
Wind Chill: 55°   Ceiling: Unl
Heat Index: 55°   Visibility: 10mi
Dew Point: 26°   Wind: 8mph
Humidity: 33%   Direction: 60°ENE
Pressure: 30.41"   Gusts: NA
Location:  36.28°N, 99.34°W
Report Text: KGAG 311953Z AUTO 06007KT 10SM CLR 13/M03 A3041 RMK AO2 SLP296 T01281033
Loading
Personal Weather Stations






























Interactive Weather Map
Tropical Storm Tracking
New forecast layout! Learn more

10-Day Weather Forecast

Advertisements
Track Severe Weather on mobile